createdAt,value
2017-08-26T00:01:28.854Z,56.73
2017-08-26T00:02:28.886Z,57.02
2017-08-26T00:04:23.607Z,56.54
2017-08-26T00:05:23.375Z,56.54
2017-08-26T00:07:18.071Z,56.80
2017-08-26T00:08:17.903Z,56.70
2017-08-26T00:10:12.353Z,57.28
2017-08-26T00:11:12.383Z,56.99
2017-08-26T00:13:07.040Z,57.57
2017-08-26T00:14:07.063Z,56.99
2017-08-26T00:16:01.384Z,57.37
2017-08-26T00:17:01.432Z,57.37
2017-08-26T00:18:56.054Z,57.28
2017-08-26T00:19:56.007Z,56.96
2017-08-26T00:21:50.392Z,58.24
2017-08-26T00:22:50.400Z,57.95
2017-08-26T00:24:44.904Z,57.67
2017-08-26T00:25:44.936Z,57.57
2017-08-26T00:27:39.636Z,58.22
2017-08-26T00:28:39.448Z,57.73
2017-08-26T00:30:33.888Z,58.34
2017-08-26T00:31:33.936Z,58.40
2017-08-26T00:33:28.416Z,58.15
2017-08-26T00:34:28.441Z,58.05
2017-08-26T00:36:22.920Z,58.22
2017-08-26T00:37:22.968Z,58.12
2017-08-26T00:39:17.440Z,58.50
2017-08-26T00:40:17.456Z,58.70
2017-08-26T00:42:12.024Z,58.60
2017-08-26T00:43:11.968Z,58.98
2017-08-26T00:45:06.448Z,58.50
2017-08-26T00:46:06.456Z,58.50
2017-08-26T00:48:00.944Z,58.70
2017-08-26T00:49:01.104Z,58.89
2017-08-26T00:50:56.968Z,58.70
2017-08-26T00:51:56.969Z,58.70
2017-08-26T00:53:51.480Z,58.60
2017-08-26T00:54:51.481Z,59.08
2017-08-26T00:56:45.929Z,58.79
2017-08-26T00:57:45.993Z,59.17
2017-08-26T00:59:41.977Z,58.89
2017-08-26T01:00:41.993Z,59.27
2017-08-26T01:02:36.441Z,59.37
2017-08-26T01:03:36.577Z,58.98
2017-08-26T01:05:30.969Z,59.37
2017-08-26T01:06:31.193Z,59.37
2017-08-26T01:08:25.626Z,58.98
2017-08-26T01:09:25.513Z,58.98
2017-08-26T01:11:19.982Z,58.98
2017-08-26T01:12:20.130Z,59.27
2017-08-26T01:14:13.577Z,59.08
2017-08-26T01:15:13.514Z,58.89
2017-08-26T01:17:08.106Z,58.98
2017-08-26T01:18:08.151Z,59.17
2017-08-26T01:20:02.478Z,58.98
2017-08-26T01:21:02.514Z,59.17
2017-08-26T01:22:57.020Z,59.37
2017-08-26T01:23:57.012Z,59.37
2017-08-26T01:25:50.487Z,59.17
2017-08-26T01:26:50.516Z,59.17
2017-08-26T01:28:45.117Z,59.17
2017-08-26T01:29:45.045Z,59.27
2017-08-26T01:31:39.485Z,59.56
2017-08-26T01:32:39.525Z,59.47
2017-08-26T01:34:34.133Z,59.27
2017-08-26T01:35:34.137Z,60.04
2017-08-26T01:37:28.653Z,59.85
2017-08-26T01:38:28.773Z,59.75
2017-08-26T01:40:23.029Z,59.56
2017-08-26T01:41:23.038Z,59.85
2017-08-26T01:43:29.086Z,60.24
2017-08-26T01:44:29.278Z,60.42
2017-08-26T01:46:23.798Z,59.94
2017-08-26T01:47:23.646Z,59.66
2017-08-26T01:49:18.115Z,59.47
2017-08-26T01:50:18.326Z,59.37
2017-08-26T01:52:12.598Z,59.85
2017-08-26T01:53:12.638Z,59.66
2017-08-26T01:55:07.102Z,59.75
2017-08-26T01:56:07.318Z,60.24
2017-08-26T01:58:01.606Z,59.27
2017-08-26T01:59:01.630Z,59.85
2017-08-26T02:00:56.103Z,60.62
2017-08-26T02:01:56.119Z,59.94
2017-08-26T02:03:50.607Z,59.94
2017-08-26T02:04:50.623Z,59.75
2017-08-26T02:06:45.095Z,59.94
2017-08-26T02:07:45.143Z,59.75
2017-08-26T02:09:39.639Z,59.94
2017-08-26T02:10:39.807Z,59.66
2017-08-26T02:12:34.095Z,59.66
2017-08-26T02:13:34.133Z,59.94
2017-08-26T02:15:28.759Z,60.24
2017-08-26T02:16:28.679Z,59.66
2017-08-26T02:18:23.103Z,60.04
2017-08-26T02:19:23.175Z,59.85
2017-08-26T02:21:17.615Z,60.04
2017-08-26T02:22:17.751Z,59.85
2017-08-26T02:24:12.087Z,59.85
2017-08-26T02:25:12.432Z,59.85
2017-08-26T02:27:06.688Z,59.85
2017-08-26T02:28:06.664Z,59.47
2017-08-26T02:30:00.336Z,59.94
2017-08-26T02:31:00.216Z,59.66
2017-08-26T02:32:53.824Z,59.75
2017-08-26T02:33:53.680Z,59.75
2017-08-26T02:35:48.298Z,59.94
2017-08-26T02:36:48.160Z,60.24
2017-08-26T02:38:41.648Z,59.66
2017-08-26T02:39:41.640Z,59.94
2017-08-26T02:41:36.112Z,59.94
2017-08-26T02:42:36.160Z,59.82
2017-08-26T02:44:30.665Z,60.24
2017-08-26T02:45:30.665Z,60.04
2017-08-26T02:47:25.113Z,60.24
2017-08-26T02:48:25.184Z,59.85
2017-08-26T02:50:19.657Z,60.04
2017-08-26T02:51:19.668Z,60.01
2017-08-26T02:53:14.136Z,60.30
2017-08-26T02:54:14.337Z,60.11
2017-08-26T02:56:10.161Z,60.78
2017-08-26T02:57:10.177Z,60.30
2017-08-26T02:59:04.753Z,60.30
2017-08-26T03:00:04.842Z,60.39
2017-08-26T03:01:58.356Z,60.39
2017-08-26T03:02:58.249Z,60.78
2017-08-26T03:04:52.766Z,60.69
2017-08-26T03:05:52.682Z,60.49
2017-08-26T03:07:47.121Z,60.78
2017-08-26T03:08:47.329Z,60.78
2017-08-26T03:10:41.658Z,60.69
2017-08-26T03:11:41.657Z,60.88
2017-08-26T03:13:36.146Z,60.78
2017-08-26T03:14:36.246Z,60.78
2017-08-26T03:16:30.650Z,60.88
2017-08-26T03:17:30.674Z,60.78
2017-08-26T03:19:25.130Z,60.69
2017-08-26T03:20:25.170Z,60.69
2017-08-26T03:22:19.659Z,61.07
2017-08-26T03:23:19.698Z,61.16
2017-08-26T03:25:14.122Z,60.88
2017-08-26T03:26:14.218Z,61.36
2017-08-26T03:28:08.858Z,61.26
2017-08-26T03:29:08.869Z,61.07
2017-08-26T03:31:03.163Z,61.36
2017-08-26T03:32:03.170Z,61.46
2017-08-26T03:33:57.635Z,61.16
2017-08-26T03:34:57.923Z,60.78
2017-08-26T03:36:52.163Z,61.16
2017-08-26T03:37:52.170Z,61.33
2017-08-26T03:39:45.651Z,61.33
2017-08-26T03:40:45.695Z,61.36
2017-08-26T03:42:40.147Z,61.04
2017-08-26T03:43:40.339Z,61.23
2017-08-26T03:45:33.667Z,61.14
2017-08-26T03:46:33.675Z,62.00
2017-08-26T03:48:28.309Z,61.52
2017-08-26T03:49:28.235Z,61.71
2017-08-26T03:51:22.675Z,62.10
2017-08-26T03:52:22.811Z,61.91
2017-08-26T03:54:16.123Z,62.48
2017-08-26T03:55:16.164Z,62.00
2017-08-26T03:57:10.660Z,62.29
2017-08-26T03:58:10.667Z,62.10
2017-08-26T04:00:05.156Z,62.58
2017-08-26T04:01:05.196Z,62.77
2017-08-26T04:02:58.708Z,62.58
2017-08-26T04:03:58.692Z,62.48
2017-08-26T04:05:53.163Z,62.64
2017-08-26T04:06:53.228Z,62.48
2017-08-26T04:08:47.700Z,63.15
2017-08-26T04:09:47.708Z,63.54
2017-08-26T04:11:42.308Z,63.12
2017-08-26T04:12:42.412Z,62.93
2017-08-26T04:14:36.844Z,63.70
2017-08-26T04:15:36.733Z,63.51
2017-08-26T04:17:31.237Z,63.70
2017-08-26T04:18:31.229Z,63.79
2017-08-26T04:20:25.716Z,63.70
2017-08-26T04:21:25.708Z,63.79
2017-08-26T04:23:20.188Z,63.79
2017-08-26T04:24:20.277Z,63.51
2017-08-26T04:26:14.700Z,64.18
2017-08-26T04:27:14.796Z,64.09
2017-08-26T04:29:09.181Z,63.99
2017-08-26T04:30:09.197Z,63.99
2017-08-26T04:32:03.733Z,64.09
2017-08-26T04:33:03.717Z,64.56
2017-08-26T04:34:57.213Z,63.99
2017-08-26T04:35:57.253Z,63.99
2017-08-26T04:37:51.717Z,63.70
2017-08-26T04:38:51.982Z,64.09
2017-08-26T04:40:46.237Z,64.05
2017-08-26T04:41:46.239Z,63.96
2017-08-26T04:43:39.718Z,64.28
2017-08-26T04:44:39.750Z,64.47
2017-08-26T04:46:34.213Z,64.37
2017-08-26T04:47:34.245Z,64.66
2017-08-26T04:49:28.742Z,64.25
2017-08-26T04:50:28.966Z,64.56
2017-08-26T04:52:23.230Z,64.56
2017-08-26T04:53:23.303Z,64.72
2017-08-26T04:55:17.758Z,64.82
2017-08-26T04:56:17.996Z,65.01
2017-08-26T04:58:12.214Z,65.40
2017-08-26T04:59:12.526Z,65.59
2017-08-26T05:01:06.751Z,65.59
2017-08-26T05:02:06.910Z,65.11
2017-08-26T05:04:01.222Z,64.82
2017-08-26T05:05:01.255Z,65.49
2017-08-26T05:06:55.734Z,65.30
2017-08-26T05:07:56.030Z,65.59
2017-08-26T05:09:50.238Z,65.49
2017-08-26T05:10:50.279Z,65.88
2017-08-26T05:12:43.759Z,66.16
2017-08-26T05:13:43.799Z,65.78
2017-08-26T05:15:38.255Z,65.49
2017-08-26T05:16:38.303Z,65.88
2017-08-26T05:18:31.751Z,65.88
2017-08-26T05:19:31.759Z,66.55
2017-08-26T05:21:26.503Z,66.07
2017-08-26T05:22:26.471Z,65.69
2017-08-26T05:24:20.783Z,65.97
2017-08-26T05:25:20.839Z,65.88
2017-08-26T05:27:14.479Z,65.88
2017-08-26T05:28:14.288Z,66.46
2017-08-26T05:30:08.832Z,65.88
2017-08-26T05:31:08.783Z,65.49
2017-08-26T05:33:03.264Z,65.88
2017-08-26T05:34:03.407Z,66.16
2017-08-26T05:35:57.775Z,65.88
2017-08-26T05:36:57.784Z,66.26
2017-08-26T05:38:52.288Z,66.07
2017-08-26T05:39:52.448Z,66.16
2017-08-26T05:41:46.918Z,66.55
2017-08-26T05:42:46.793Z,66.55
2017-08-26T05:44:41.304Z,66.39
2017-08-26T05:45:41.304Z,66.10
2017-08-26T05:47:35.761Z,66.36
2017-08-26T05:48:35.785Z,66.68
2017-08-26T05:50:30.280Z,66.07
2017-08-26T05:51:30.416Z,66.20
2017-08-26T05:53:24.032Z,66.58
2017-08-26T05:54:23.801Z,66.20
2017-08-26T05:56:18.312Z,66.20
2017-08-26T05:57:18.297Z,66.49
2017-08-26T05:59:13.337Z,66.00
2017-08-26T06:00:11.794Z,66.30
2017-08-26T06:02:06.434Z,66.20
2017-08-26T06:03:06.329Z,66.10
2017-08-26T06:05:00.761Z,66.68
2017-08-26T06:06:00.801Z,66.49
2017-08-26T06:07:55.300Z,66.39
2017-08-26T06:08:55.305Z,66.58
2017-08-26T06:10:50.809Z,66.39
2017-08-26T06:11:50.649Z,66.00
2017-08-26T06:13:45.129Z,66.71
2017-08-26T06:14:45.161Z,67.00
2017-08-26T06:16:39.641Z,66.04
2017-08-26T06:17:39.649Z,66.42
2017-08-26T06:19:34.114Z,66.42
2017-08-26T06:20:34.145Z,66.61
2017-08-26T06:22:28.658Z,66.61
2017-08-26T06:23:28.634Z,66.81
2017-08-26T06:25:23.210Z,66.52
2017-08-26T06:26:23.162Z,66.81
2017-08-26T06:28:17.626Z,66.46
2017-08-26T06:29:17.770Z,66.65
2017-08-26T06:31:12.114Z,66.27
2017-08-26T06:32:12.442Z,66.14
2017-08-26T06:34:05.666Z,66.46
2017-08-26T06:35:05.673Z,66.36
2017-08-26T06:37:00.170Z,66.07
2017-08-26T06:38:00.197Z,66.46
2017-08-26T06:39:56.667Z,65.78
2017-08-26T06:40:54.666Z,65.40
2017-08-26T06:42:49.282Z,65.59
2017-08-26T06:43:49.195Z,65.24
2017-08-26T06:45:43.658Z,64.86
2017-08-26T06:46:43.699Z,64.86
2017-08-26T06:48:40.363Z,64.76
2017-08-26T06:49:39.964Z,65.05
2017-08-26T06:51:37.843Z,64.28
2017-08-26T06:52:35.987Z,64.08
2017-08-26T06:54:30.444Z,63.89
2017-08-26T06:55:30.938Z,64.18
2017-08-26T06:57:24.926Z,64.08
2017-08-26T06:58:33.611Z,64.08
2017-08-26T07:00:19.427Z,63.64
2017-08-26T07:01:20.347Z,63.92
2017-08-26T07:03:12.995Z,63.82
2017-08-26T07:04:12.995Z,63.34
2017-08-26T07:06:07.427Z,63.44
2017-08-26T07:07:07.492Z,63.73
2017-08-26T07:09:01.995Z,62.90
2017-08-26T07:10:01.971Z,62.80
2017-08-26T07:12:47.500Z,62.60
2017-08-26T07:13:48.564Z,61.93
2017-08-26T07:15:42.136Z,62.03
2017-08-26T07:16:42.108Z,61.83
2017-08-26T07:18:36.536Z,61.35
2017-08-26T07:19:37.608Z,61.74
2017-08-26T07:21:31.128Z,61.58
2017-08-26T07:22:31.224Z,61.58
2017-08-26T07:24:34.233Z,61.19
2017-08-26T07:25:25.579Z,60.90
2017-08-26T07:27:22.074Z,61.29
2017-08-26T07:28:21.592Z,61.48
2017-08-26T07:30:25.200Z,61.29
2017-08-26T07:31:15.098Z,61.03
2017-08-26T07:33:10.992Z,61.03
2017-08-26T07:34:10.936Z,60.26
2017-08-26T07:36:04.256Z,60.16
2017-08-26T07:38:58.592Z,60.26
2017-08-26T07:40:06.289Z,59.39
2017-08-26T07:41:53.088Z,59.97
2017-08-26T07:42:53.161Z,59.61
2017-08-26T07:44:48.625Z,59.13
2017-08-26T07:45:48.697Z,59.23
2017-08-26T07:47:43.123Z,59.03
2017-08-26T07:48:43.147Z,59.06
2017-08-26T07:50:37.714Z,58.77
2017-08-26T07:51:37.771Z,58.39
2017-08-26T07:53:32.124Z,58.10
2017-08-26T07:54:32.171Z,58.10
2017-08-26T07:56:26.643Z,57.32
2017-08-26T07:57:26.674Z,57.32
2017-08-26T07:59:21.148Z,57.23
2017-08-26T08:00:21.659Z,57.14
2017-08-26T08:02:26.939Z,57.06
2017-08-26T08:03:19.134Z,57.06
2017-08-26T08:05:24.724Z,55.71
2017-08-26T08:06:15.723Z,56.10
2017-08-26T08:08:08.764Z,56.00
2017-08-26T08:09:08.772Z,56.87
2017-08-26T08:11:03.500Z,56.00
2017-08-26T08:12:02.348Z,56.48
2017-08-26T08:13:56.892Z,56.87
2017-08-26T08:14:56.885Z,57.16
2017-08-26T08:16:52.860Z,55.71
2017-08-26T08:17:51.373Z,55.52
2017-08-26T08:19:45.876Z,56.10
2017-08-26T08:20:45.876Z,55.83
2017-08-26T08:22:40.340Z,55.45
2017-08-26T08:23:41.348Z,55.83
2017-08-26T08:25:36.412Z,55.09
2017-08-26T08:26:44.051Z,54.41
2017-08-26T08:28:30.867Z,54.35
2017-08-26T08:29:33.123Z,53.67
2017-08-26T08:31:25.428Z,53.99
2017-08-26T08:32:35.819Z,54.47
2017-08-26T08:34:20.366Z,53.50
2017-08-26T08:35:21.124Z,53.72
2017-08-26T08:37:17.028Z,53.36
2017-08-26T08:38:15.907Z,51.59
2017-08-26T08:40:10.508Z,51.54
2017-08-26T08:41:10.012Z,50.77
2017-08-26T08:43:06.060Z,49.49
2017-08-26T08:44:14.709Z,49.22
2017-08-26T08:45:59.236Z,49.90
2017-08-26T08:46:59.260Z,49.51
2017-08-26T08:49:02.428Z,50.21
2017-08-26T08:49:54.028Z,49.73
2017-08-26T08:51:58.044Z,49.82
2017-08-26T08:52:50.676Z,49.73
2017-08-26T08:54:54.957Z,50.14
2017-08-26T08:55:56.861Z,50.14
2017-08-26T08:57:59.533Z,48.00
2017-08-26T08:58:57.964Z,48.20
2017-08-26T09:00:43.933Z,47.20
2017-08-26T09:01:43.917Z,47.69
2017-08-26T09:03:38.325Z,47.72
2017-08-26T09:04:38.477Z,47.62
2017-08-26T09:16:11.155Z,46.67
2017-08-26T09:17:11.228Z,47.06
2017-08-26T09:19:06.525Z,48.13
2017-08-26T09:20:06.140Z,48.15
2017-08-26T09:22:20.444Z,47.01
2017-08-26T09:23:11.836Z,46.35
2017-08-26T09:25:13.965Z,46.15
2017-08-26T09:26:05.317Z,46.84
2017-08-26T09:27:59.868Z,45.31
2017-08-26T09:29:01.133Z,45.60
2017-08-26T09:30:54.005Z,45.79
2017-08-26T09:31:54.080Z,45.40
2017-08-26T09:33:47.549Z,44.94
2017-08-26T09:34:47.622Z,44.33
2017-08-26T09:36:41.389Z,43.54
2017-08-26T09:37:41.326Z,44.14
2017-08-26T09:39:34.806Z,43.95
2017-08-26T09:40:34.902Z,44.72
2017-08-26T09:42:28.327Z,44.55
2017-08-26T09:43:28.358Z,44.35
2017-08-26T09:45:22.959Z,43.89
2017-08-26T09:46:22.903Z,43.89
2017-08-26T09:48:17.375Z,43.52
2017-08-26T09:49:17.391Z,42.96
2017-08-26T09:51:11.879Z,42.76
2017-08-26T09:52:11.943Z,41.60
2017-08-26T09:54:06.431Z,39.86
2017-08-26T09:55:06.457Z,39.96
2017-08-26T09:57:00.991Z,39.70
2017-08-26T09:58:01.015Z,40.41
2017-08-26T09:59:55.463Z,39.36
2017-08-26T10:00:55.487Z,39.45
2017-08-26T10:02:49.959Z,40.16
2017-08-26T10:03:49.999Z,39.00
2017-08-26T10:05:44.487Z,37.45
2017-08-26T10:06:44.519Z,37.77
2017-08-26T10:08:39.040Z,36.59
2017-08-26T10:09:39.047Z,36.59
2017-08-26T10:11:35.183Z,36.49
2017-08-26T10:12:35.087Z,35.03
2017-08-26T10:14:29.567Z,35.22
2017-08-26T10:15:29.624Z,34.94
2017-08-26T10:17:24.351Z,33.58
2017-08-26T10:18:24.104Z,34.18
2017-08-26T10:20:18.737Z,34.38
2017-08-26T10:21:18.656Z,34.41
2017-08-26T10:23:13.176Z,33.23
2017-08-26T10:24:13.600Z,32.54
2017-08-26T10:26:09.632Z,31.57
2017-08-26T10:27:09.576Z,31.96
2017-08-26T10:29:03.696Z,32.46
2017-08-26T10:30:03.720Z,31.19
2017-08-26T10:31:57.265Z,30.99
2017-08-26T10:32:57.241Z,30.60
2017-08-26T10:34:51.857Z,32.01
2017-08-26T10:35:51.769Z,31.23
2017-08-26T10:37:48.089Z,29.39
2017-08-26T10:38:47.808Z,28.51
2017-08-26T10:40:41.673Z,28.85
2017-08-26T10:41:41.433Z,29.24
2017-08-26T10:43:35.953Z,26.59
2017-08-26T10:44:36.025Z,26.09
2017-08-26T10:46:30.468Z,26.87
2017-08-26T10:47:30.388Z,26.77
2017-08-26T10:49:26.477Z,26.85
2017-08-26T10:50:26.508Z,26.65
2017-08-26T10:52:21.253Z,26.93
2017-08-26T10:53:21.245Z,26.54
2017-08-26T10:55:14.524Z,27.71
2017-08-26T10:56:14.661Z,28.41
2017-08-26T10:58:09.030Z,27.66
2017-08-26T10:59:09.189Z,26.36
2017-08-26T11:01:03.574Z,25.17
2017-08-26T11:02:03.573Z,26.24
2017-08-26T11:03:57.150Z,26.93
2017-08-26T11:04:57.209Z,27.43
2017-08-26T11:06:51.757Z,26.97
2017-08-26T11:07:51.765Z,26.88
2017-08-26T11:09:46.325Z,25.63
2017-08-26T11:10:46.326Z,26.36
2017-08-26T11:12:40.797Z,24.03
2017-08-26T11:13:40.861Z,24.73
2017-08-26T11:15:37.119Z,22.39
2017-08-26T11:16:37.390Z,22.91
2017-08-26T11:18:31.853Z,20.84
2017-08-26T11:19:31.533Z,20.57
2017-08-26T11:21:28.950Z,18.07
2017-08-26T11:22:26.254Z,18.95
2017-08-26T11:24:20.686Z,18.94
2017-08-26T11:25:20.502Z,20.04
2017-08-26T11:27:15.095Z,18.88
2017-08-26T11:28:15.087Z,17.98
2017-08-26T11:30:09.931Z,17.97
2017-08-26T11:31:09.587Z,18.28
2017-08-26T11:33:04.026Z,18.80
2017-08-26T11:34:04.091Z,17.21
2017-08-26T11:35:58.706Z,16.00
2017-08-26T11:36:58.640Z,15.90
2017-08-26T11:38:52.112Z,15.95
2017-08-26T11:39:52.169Z,16.74
2017-08-26T11:41:46.617Z,17.80
2017-08-26T11:42:46.681Z,18.69
2017-08-26T11:44:40.338Z,20.26
2017-08-26T11:45:40.433Z,19.96
2017-08-26T11:47:34.857Z,20.36
2017-08-26T11:48:34.956Z,19.78
2017-08-26T11:50:30.121Z,20.26
2017-08-26T11:51:30.768Z,19.87
2017-08-26T11:53:24.385Z,20.16
2017-08-26T11:54:24.145Z,20.95
2017-08-26T11:56:17.161Z,20.76
2017-08-26T11:57:17.953Z,21.26
2017-08-26T11:59:10.890Z,20.57
2017-08-26T12:00:10.889Z,20.68
2017-08-26T12:02:05.810Z,19.48
2017-08-26T12:03:05.898Z,20.16
2017-08-26T12:05:00.826Z,20.55
2017-08-26T12:06:02.858Z,19.85
2017-08-26T12:08:55.114Z,22.03
2017-08-26T12:09:54.722Z,21.75
2017-08-26T12:11:49.482Z,21.27
2017-08-26T12:12:48.962Z,20.48
2017-08-26T12:14:43.003Z,19.68
2017-08-26T12:15:43.026Z,19.79
2017-08-26T12:17:36.675Z,18.99
2017-08-26T12:18:36.963Z,18.99
2017-08-26T12:20:31.290Z,19.26
2017-08-26T12:21:31.442Z,19.05
2017-08-26T12:23:25.893Z,20.91
2017-08-26T12:24:26.034Z,21.11
2017-08-26T12:26:22.834Z,21.89
2017-08-26T12:27:21.339Z,21.50
2017-08-26T12:29:16.739Z,21.88
2017-08-26T12:30:15.507Z,22.17
2017-08-26T12:32:10.331Z,22.25
2017-08-26T12:33:10.355Z,23.24
2017-08-26T12:35:06.555Z,23.83
2017-08-26T12:36:06.507Z,23.82
2017-08-26T12:38:00.116Z,24.60
2017-08-26T12:39:00.099Z,23.83
2017-08-26T12:40:54.627Z,23.72
2017-08-26T12:41:54.627Z,23.50
2017-08-26T12:43:49.083Z,25.29
2017-08-26T12:44:49.125Z,25.90
2017-08-26T12:46:45.131Z,23.95
2017-08-26T12:47:44.860Z,25.07
2017-08-26T12:49:38.443Z,22.82
2017-08-26T12:50:38.564Z,22.44
2017-08-26T12:52:33.140Z,21.92
2017-08-26T12:53:33.020Z,20.94
2017-08-26T12:55:27.748Z,17.90
2017-08-26T12:56:27.740Z,19.12
2017-08-26T12:58:21.164Z,15.26
2017-08-26T12:59:21.188Z,15.49
2017-08-26T13:01:14.988Z,14.41
2017-08-26T13:02:14.780Z,13.62
2017-08-26T13:04:08.516Z,11.82
2017-08-26T13:05:08.667Z,12.63
2017-08-26T13:07:02.932Z,11.63
2017-08-26T13:08:03.012Z,10.13
2017-08-26T13:09:59.452Z,11.11
2017-08-26T13:10:59.700Z,11.31
2017-08-26T13:12:52.053Z,11.93
2017-08-26T13:13:51.532Z,11.63
2017-08-26T13:15:46.037Z,10.84
2017-08-26T13:16:46.117Z,10.14
2017-08-26T13:18:40.597Z,10.05
2017-08-26T13:19:40.682Z,10.07
2017-08-26T13:21:34.005Z,8.25
2017-08-26T13:22:34.013Z,7.64
2017-08-26T13:24:28.533Z,9.03
2017-08-26T13:25:28.538Z,9.52
2017-08-26T13:27:22.886Z,9.70
2017-08-26T13:28:23.349Z,10.10
2017-08-26T13:30:18.813Z,10.58
2017-08-26T13:31:18.821Z,11.56
2017-08-26T13:33:12.414Z,12.65
2017-08-26T13:34:12.464Z,13.34
2017-08-26T13:36:08.926Z,14.44
2017-08-26T13:37:08.927Z,13.34
2017-08-26T13:39:02.031Z,14.03
2017-08-26T13:40:01.710Z,13.82
2017-08-26T13:41:56.211Z,15.19
2017-08-26T13:42:56.422Z,14.59
2017-08-26T13:44:49.772Z,15.95
2017-08-26T13:45:49.788Z,16.64
2017-08-26T13:47:47.436Z,17.22
2017-08-26T13:48:47.520Z,17.61
2017-08-26T13:50:41.085Z,18.37
2017-08-26T13:51:41.108Z,19.54
2017-08-26T13:53:35.597Z,19.03
2017-08-26T13:54:35.653Z,19.82
2017-08-26T13:56:30.128Z,20.70
2017-08-26T13:57:30.173Z,21.29
2017-08-26T13:59:24.669Z,22.27
2017-08-26T14:00:24.670Z,22.28
2017-08-26T14:02:21.806Z,21.20
2017-08-26T14:03:21.837Z,21.30
2017-08-26T14:05:15.965Z,20.29
2017-08-26T14:06:15.981Z,20.18
2017-08-26T14:08:12.721Z,21.37
2017-08-26T14:09:09.824Z,21.67
2017-08-26T14:11:03.905Z,20.57
2017-08-26T14:12:03.936Z,22.14
2017-08-26T14:13:58.417Z,21.56
2017-08-26T14:14:58.448Z,21.06
2017-08-26T14:16:51.937Z,21.84
2017-08-26T14:17:51.985Z,21.64
2017-08-26T14:19:48.081Z,22.13
2017-08-26T14:20:48.041Z,22.52
2017-08-26T14:22:42.527Z,22.63
2017-08-26T14:23:42.583Z,22.73
2017-08-26T14:25:39.375Z,22.42
2017-08-26T14:26:39.143Z,22.62
2017-08-26T14:28:33.303Z,21.92
2017-08-26T14:29:33.271Z,22.41
2017-08-26T14:31:26.751Z,22.61
2017-08-26T14:32:26.800Z,22.52
2017-08-26T14:34:21.279Z,22.61
2017-08-26T14:35:21.442Z,22.31
2017-08-26T14:37:15.793Z,23.30
2017-08-26T14:38:15.817Z,23.79
2017-08-26T14:40:09.313Z,23.40
2017-08-26T14:41:09.376Z,22.52
2017-08-26T14:43:04.046Z,22.50
2017-08-26T14:44:03.923Z,23.49
2017-08-26T14:45:58.404Z,22.50
2017-08-26T14:46:58.397Z,22.98
2017-08-26T14:48:52.917Z,23.85
2017-08-26T14:49:52.957Z,23.75
2017-08-26T14:51:46.429Z,25.02
2017-08-26T14:52:46.797Z,24.74
2017-08-26T14:54:40.966Z,24.74
2017-08-26T14:55:40.989Z,25.24
2017-08-26T14:57:34.541Z,24.93
2017-08-26T14:58:34.605Z,25.42
2017-08-26T15:00:28.701Z,25.23
2017-08-26T15:01:29.541Z,24.74
2017-08-26T15:03:21.821Z,24.92
2017-08-26T15:04:21.949Z,25.32
2017-08-26T15:06:16.060Z,25.32
2017-08-26T15:07:15.573Z,25.11
2017-08-26T15:09:08.941Z,26.40
2017-08-26T15:10:08.989Z,26.10
2017-08-26T15:12:02.405Z,24.91
2017-08-26T15:13:02.166Z,25.22
2017-08-26T15:14:59.857Z,25.32
2017-08-26T15:15:59.888Z,24.52
2017-08-26T15:17:53.016Z,25.31
2017-08-26T15:18:53.161Z,25.01
2017-08-26T15:20:51.424Z,24.91
2017-08-26T15:21:50.785Z,24.90
2017-08-26T15:23:44.782Z,25.29
2017-08-26T15:24:44.844Z,25.09
2017-08-26T15:26:38.438Z,25.38
2017-08-26T15:27:38.359Z,26.56
2017-08-26T15:29:32.934Z,26.07
2017-08-26T15:30:32.942Z,26.37
2017-08-26T15:32:26.382Z,27.25
2017-08-26T15:33:26.413Z,26.76
2017-08-26T15:35:20.041Z,26.37
2017-08-26T15:36:19.926Z,26.07
2017-08-26T15:38:14.438Z,25.28
2017-08-26T15:39:14.438Z,26.07
2017-08-26T15:41:09.046Z,26.17
2017-08-26T15:42:09.334Z,25.28
2017-08-26T15:44:04.965Z,25.95
2017-08-26T15:45:05.006Z,26.05
2017-08-26T15:46:59.477Z,25.66
2017-08-26T15:47:59.485Z,26.14
2017-08-26T15:49:53.150Z,26.53
2017-08-26T15:50:53.054Z,26.32
2017-08-26T15:52:48.741Z,28.18
2017-08-26T15:53:48.670Z,27.20
2017-08-26T15:55:43.006Z,26.70
2017-08-26T15:56:43.046Z,27.98
2017-08-26T15:58:37.828Z,28.96
2017-08-26T15:59:37.590Z,28.57
2017-08-26T16:01:32.118Z,27.77
2017-08-26T16:02:32.134Z,27.77
2017-08-26T16:04:26.678Z,28.65
2017-08-26T16:05:26.629Z,28.85
2017-08-26T16:07:20.510Z,28.75
2017-08-26T16:08:20.317Z,29.04
2017-08-26T16:10:16.526Z,28.93
2017-08-26T16:11:16.709Z,28.54
2017-08-26T16:13:11.854Z,28.72
2017-08-26T16:14:12.870Z,28.82
2017-08-26T16:16:04.966Z,29.21
2017-08-26T16:17:04.982Z,29.80
2017-08-26T16:18:59.526Z,28.92
2017-08-26T16:19:59.486Z,29.90
2017-08-26T16:21:53.998Z,29.50
2017-08-26T16:22:54.022Z,29.21
2017-08-26T16:24:57.830Z,29.21
2017-08-26T16:25:48.742Z,29.90
2017-08-26T16:27:41.998Z,29.90
2017-08-26T16:28:42.422Z,29.80
2017-08-26T16:30:40.126Z,30.18
2017-08-26T16:31:40.087Z,30.47
2017-08-26T16:33:33.465Z,30.96
2017-08-26T16:34:33.550Z,30.37
2017-08-26T16:36:28.839Z,30.57
2017-08-26T16:37:28.783Z,31.04
2017-08-26T16:39:21.725Z,31.52
2017-08-26T16:40:21.742Z,31.82
2017-08-26T16:42:16.237Z,31.80
2017-08-26T16:43:16.518Z,31.80
2017-08-26T16:45:11.075Z,32.29
2017-08-26T16:46:10.804Z,32.29
2017-08-26T16:48:05.246Z,32.18
2017-08-26T16:49:05.291Z,32.57
2017-08-26T16:50:58.795Z,32.67
2017-08-26T16:51:58.820Z,32.86
2017-08-26T16:53:53.291Z,33.53
2017-08-26T16:54:53.564Z,33.04
2017-08-26T16:56:46.838Z,33.04
2017-08-26T16:57:46.892Z,32.94
2017-08-26T16:59:41.365Z,34.01
2017-08-26T17:00:41.356Z,34.01
2017-08-26T17:02:35.860Z,34.09
2017-08-26T17:03:35.868Z,34.09
2017-08-26T17:05:30.340Z,34.09
2017-08-26T17:06:30.396Z,34.19
2017-08-26T17:08:23.884Z,33.80
2017-08-26T17:09:23.892Z,34.00
2017-08-26T17:11:17.372Z,34.17
2017-08-26T17:12:17.404Z,34.27
2017-08-26T17:14:11.926Z,33.98
2017-08-26T17:15:11.972Z,34.37
2017-08-26T17:17:06.565Z,33.78
2017-08-26T17:18:06.420Z,33.96
2017-08-26T17:20:01.045Z,34.35
2017-08-26T17:21:00.981Z,33.96
2017-08-26T17:22:55.422Z,33.58
2017-08-26T17:23:55.525Z,33.85
2017-08-26T17:25:49.972Z,34.16
2017-08-26T17:26:50.013Z,34.33
2017-08-26T17:28:43.485Z,34.72
2017-08-26T17:29:43.526Z,34.43
2017-08-26T17:31:38.069Z,34.72
2017-08-26T17:32:38.085Z,34.63
2017-08-26T17:34:32.534Z,35.80
2017-08-26T17:35:32.583Z,35.11
2017-08-26T17:37:26.275Z,35.60
2017-08-26T17:38:26.332Z,35.21
2017-08-26T17:40:21.060Z,35.88
2017-08-26T17:41:21.091Z,36.26
2017-08-26T17:43:15.590Z,36.16
2017-08-26T17:44:15.620Z,36.46
2017-08-26T17:46:09.052Z,36.16
2017-08-26T17:47:09.085Z,36.46
2017-08-26T17:49:14.085Z,36.83
2017-08-26T17:50:14.102Z,37.02
2017-08-26T17:52:07.575Z,36.73
2017-08-26T17:53:07.613Z,36.93
2017-08-26T17:55:02.093Z,36.91
2017-08-26T17:56:02.109Z,37.49
2017-08-26T17:57:56.613Z,37.78
2017-08-26T17:58:56.629Z,37.68
2017-08-26T18:00:53.254Z,37.88
2017-08-26T18:01:53.421Z,37.98
2017-08-26T18:03:47.333Z,38.07
2017-08-26T18:04:47.365Z,38.27
2017-08-26T18:06:40.894Z,38.06
2017-08-26T18:07:40.901Z,38.64
2017-08-26T18:09:35.444Z,38.83
2017-08-26T18:10:35.505Z,38.25
2017-08-26T18:12:30.131Z,38.42
2017-08-26T18:13:30.692Z,38.62
2017-08-26T18:15:24.771Z,39.78
2017-08-26T18:16:25.987Z,39.69
2017-08-26T18:18:18.412Z,40.26
2017-08-26T18:19:18.420Z,40.17
2017-08-26T18:21:13.707Z,40.15
2017-08-26T18:22:13.492Z,39.86
2017-08-26T18:24:07.292Z,40.92
2017-08-26T18:25:07.308Z,41.22
2017-08-26T18:27:01.781Z,41.39
2017-08-26T18:28:01.836Z,41.49
2017-08-26T18:29:56.463Z,41.30
2017-08-26T18:30:56.453Z,41.88
2017-08-26T18:32:51.756Z,42.07
2017-08-26T18:33:51.221Z,42.36
2017-08-26T18:35:46.228Z,42.26
2017-08-26T18:36:46.317Z,43.04
2017-08-26T18:38:40.773Z,43.04
2017-08-26T18:39:40.772Z,43.04
2017-08-26T18:41:35.741Z,42.54
2017-08-26T18:43:50.242Z,43.02
2017-08-26T18:44:50.072Z,43.12
2017-08-26T18:46:44.073Z,43.21
2017-08-26T18:47:43.697Z,44.06
2017-08-26T18:49:40.121Z,43.96
2017-08-26T18:50:39.585Z,43.58
2017-08-26T18:52:32.776Z,44.54
2017-08-26T18:53:32.803Z,44.62
2017-08-26T18:55:39.363Z,45.42
2017-08-26T18:56:39.324Z,45.10
2017-08-26T18:58:35.123Z,45.22